createdAt,value
2023-05-17T00:01:59.699Z,11.34
2023-05-17T00:04:26.387Z,10.98
2023-05-17T00:06:53.038Z,10.53
2023-05-17T00:09:19.685Z,10.90
2023-05-17T00:11:46.321Z,10.85
2023-05-17T00:14:13.009Z,10.97
2023-05-17T00:16:39.634Z,10.82
2023-05-17T00:19:06.493Z,11.09
2023-05-17T00:21:33.247Z,10.73
2023-05-17T00:23:59.967Z,10.36
2023-05-17T00:26:26.662Z,10.92
2023-05-17T00:28:53.354Z,11.12
2023-05-17T00:31:20.058Z,10.86
2023-05-17T00:33:47.696Z,10.72
2023-05-17T00:36:14.486Z,10.62
2023-05-17T00:38:41.132Z,10.74
2023-05-17T00:41:07.847Z,11.00
2023-05-17T00:43:34.635Z,10.81
2023-05-17T00:46:01.463Z,11.28
2023-05-17T00:48:29.318Z,10.98
2023-05-17T00:50:56.407Z,10.76
2023-05-17T00:53:23.052Z,11.00
2023-05-17T00:55:49.670Z,10.76
2023-05-17T00:58:16.426Z,10.60
2023-05-17T01:00:43.310Z,9.72
2023-05-17T01:03:10.033Z,11.05
2023-05-17T01:05:36.807Z,10.21
2023-05-17T01:08:03.456Z,10.99
2023-05-17T01:10:39.620Z,10.01
2023-05-17T01:13:11.102Z,10.21
2023-05-17T01:15:42.254Z,10.71
2023-05-17T01:18:32.029Z,10.77
2023-05-17T01:20:59.804Z,10.69
2023-05-17T01:23:56.169Z,10.93
2023-05-17T01:26:44.261Z,10.59
2023-05-17T01:29:10.962Z,10.77
2023-05-17T01:31:37.654Z,10.72
2023-05-17T01:34:10.570Z,9.83
2023-05-17T01:36:37.422Z,10.76
2023-05-17T01:39:04.079Z,10.24
2023-05-17T01:41:35.864Z,10.51
2023-05-17T01:44:17.625Z,10.99
2023-05-17T01:46:44.378Z,10.39
2023-05-17T01:49:32.716Z,10.82
2023-05-17T01:52:21.417Z,10.51
2023-05-17T01:55:08.047Z,10.51
2023-05-17T01:57:36.751Z,10.85
2023-05-17T02:00:06.714Z,9.83
2023-05-17T02:02:33.426Z,10.64
2023-05-17T02:05:00.115Z,10.20
2023-05-17T02:07:26.813Z,10.04
2023-05-17T02:09:53.478Z,10.17
2023-05-17T02:12:20.175Z,10.24
2023-05-17T02:14:47.203Z,10.30
2023-05-17T02:17:13.887Z,10.24
2023-05-17T02:19:40.568Z,10.38
2023-05-17T02:22:07.357Z,8.92
2023-05-17T02:24:34.025Z,10.05
2023-05-17T02:27:01.028Z,9.37
2023-05-17T02:29:27.703Z,10.32
2023-05-17T02:31:54.348Z,9.97
2023-05-17T02:34:21.079Z,9.90
2023-05-17T02:36:48.673Z,9.91
2023-05-17T02:39:15.389Z,9.10
2023-05-17T02:41:42.064Z,10.17
2023-05-17T02:44:08.696Z,9.38
2023-05-17T02:46:38.253Z,9.37
2023-05-17T02:49:05.196Z,10.12
2023-05-17T02:51:31.894Z,9.73
2023-05-17T02:53:58.523Z,9.86
2023-05-17T02:56:25.215Z,9.92
2023-05-17T02:58:52.015Z,10.27
2023-05-17T03:01:18.645Z,9.74
2023-05-17T03:03:45.675Z,10.09
2023-05-17T03:06:12.522Z,9.79
2023-05-17T03:08:39.153Z,9.80
2023-05-17T03:11:06.115Z,9.47
2023-05-17T03:13:32.858Z,9.94
2023-05-17T03:15:59.547Z,8.82
2023-05-17T03:18:26.345Z,8.86
2023-05-17T03:20:53.069Z,8.52
2023-05-17T03:23:19.699Z,9.78
2023-05-17T03:25:46.362Z,9.13
2023-05-17T03:28:13.221Z,9.21
2023-05-17T03:30:39.891Z,9.59
2023-05-17T03:33:06.725Z,9.68
2023-05-17T03:35:33.399Z,8.60
2023-05-17T03:38:00.028Z,8.51
2023-05-17T03:40:26.772Z,9.31
2023-05-17T03:42:54.358Z,8.50
2023-05-17T03:45:21.052Z,8.93
2023-05-17T03:47:47.732Z,9.13
2023-05-17T03:50:14.429Z,9.04
2023-05-17T03:52:42.171Z,8.90
2023-05-17T03:55:09.555Z,9.42
2023-05-17T03:57:36.202Z,9.14
2023-05-17T04:00:06.491Z,8.78
2023-05-17T04:02:33.175Z,8.98
2023-05-17T04:04:59.825Z,8.59
2023-05-17T04:07:26.599Z,8.95
2023-05-17T04:09:53.649Z,8.86
2023-05-17T04:12:20.562Z,8.90
2023-05-17T04:14:47.197Z,8.82
2023-05-17T04:17:16.273Z,8.87
2023-05-17T04:19:43.517Z,9.12
2023-05-17T04:22:10.184Z,8.44
2023-05-17T04:24:36.892Z,8.44
2023-05-17T04:27:06.997Z,7.48
2023-05-17T04:29:33.643Z,7.31
2023-05-17T04:32:00.720Z,8.23
2023-05-17T04:34:27.831Z,8.05
2023-05-17T04:36:54.500Z,8.53
2023-05-17T04:39:21.156Z,8.34
2023-05-17T04:41:47.822Z,8.45
2023-05-17T04:44:14.511Z,8.68
2023-05-17T04:46:42.234Z,7.55
2023-05-17T04:49:08.899Z,8.44
2023-05-17T04:51:35.819Z,8.12
2023-05-17T04:54:03.302Z,8.11
2023-05-17T04:56:29.911Z,8.23
2023-05-17T04:58:56.543Z,8.36
2023-05-17T05:01:23.253Z,8.16
2023-05-17T05:03:50.043Z,7.82
2023-05-17T05:06:16.793Z,8.05
2023-05-17T05:08:43.464Z,8.35
2023-05-17T05:11:10.082Z,8.16
2023-05-17T05:13:39.025Z,7.91
2023-05-17T05:16:06.324Z,7.71
2023-05-17T05:18:33.148Z,7.93
2023-05-17T05:21:00.375Z,7.21
2023-05-17T05:23:27.052Z,8.17
2023-05-17T05:25:53.955Z,8.10
2023-05-17T05:28:20.854Z,6.65
2023-05-17T05:30:47.585Z,7.99
2023-05-17T05:33:14.355Z,8.19
2023-05-17T05:35:41.121Z,7.85
2023-05-17T05:38:08.049Z,7.79
2023-05-17T05:40:34.843Z,7.71
2023-05-17T05:43:01.489Z,7.24
2023-05-17T05:45:28.163Z,7.63
2023-05-17T05:47:54.878Z,8.27
2023-05-17T05:50:21.735Z,7.95
2023-05-17T05:52:50.881Z,7.67
2023-05-17T05:55:17.562Z,7.99
2023-05-17T05:57:44.201Z,8.02
2023-05-17T06:00:12.058Z,8.07
2023-05-17T06:02:38.840Z,8.11
2023-05-17T06:05:05.863Z,8.06
2023-05-17T06:07:32.568Z,8.18
2023-05-17T06:09:59.200Z,8.01
2023-05-17T06:12:26.650Z,7.58
2023-05-17T06:14:53.363Z,7.96
2023-05-17T06:17:21.488Z,8.18
2023-05-17T06:19:49.480Z,7.81
2023-05-17T06:22:16.389Z,6.64
2023-05-17T06:24:43.128Z,7.54
2023-05-17T06:27:09.828Z,8.07
2023-05-17T06:29:36.524Z,8.35
2023-05-17T06:32:03.301Z,8.31
2023-05-17T06:34:29.971Z,8.10
2023-05-17T06:36:56.711Z,7.87
2023-05-17T06:39:23.339Z,8.52
2023-05-17T06:41:50.381Z,8.34
2023-05-17T06:44:17.921Z,7.01
2023-05-17T06:46:44.547Z,8.54
2023-05-17T06:49:11.334Z,8.20
2023-05-17T06:51:38.030Z,8.24
2023-05-17T06:54:04.705Z,7.69
2023-05-17T06:56:31.886Z,8.11
2023-05-17T06:58:58.608Z,7.89
2023-05-17T07:01:25.870Z,8.16
2023-05-17T07:03:52.814Z,8.64
2023-05-17T07:06:19.926Z,8.26
2023-05-17T07:08:46.712Z,8.18
2023-05-17T07:11:13.354Z,8.55
2023-05-17T07:13:40.028Z,8.59
2023-05-17T07:16:10.319Z,8.23
2023-05-17T07:18:37.120Z,8.10
2023-05-17T07:21:04.093Z,8.56
2023-05-17T07:23:30.762Z,8.01
2023-05-17T07:25:57.671Z,8.41
2023-05-17T07:28:24.329Z,8.18
2023-05-17T07:30:51.179Z,8.07
2023-05-17T07:33:17.831Z,8.49
2023-05-17T07:35:44.524Z,8.08
2023-05-17T07:38:11.181Z,8.17
2023-05-17T07:40:38.050Z,7.61
2023-05-17T07:43:04.677Z,8.61
2023-05-17T07:45:31.547Z,7.46
2023-05-17T07:47:58.473Z,8.73
2023-05-17T07:50:26.080Z,7.93
2023-05-17T07:52:52.739Z,7.08
2023-05-17T07:55:20.689Z,7.22
2023-05-17T07:57:48.311Z,8.34
2023-05-17T08:00:15.540Z,7.41
2023-05-17T08:02:42.751Z,8.39
2023-05-17T08:05:09.940Z,8.19
2023-05-17T08:07:36.648Z,7.93
2023-05-17T08:10:03.358Z,8.43
2023-05-17T08:12:30.034Z,7.81
2023-05-17T08:14:56.701Z,8.48
2023-05-17T08:17:23.456Z,6.79
2023-05-17T08:19:51.978Z,7.85
2023-05-17T08:22:19.966Z,8.34
2023-05-17T08:24:46.625Z,7.57
2023-05-17T08:27:13.341Z,7.99
2023-05-17T08:29:40.104Z,7.16
2023-05-17T08:32:07.204Z,8.04
2023-05-17T08:34:33.860Z,8.41
2023-05-17T08:37:02.243Z,8.64
2023-05-17T08:39:28.956Z,8.12
2023-05-17T08:41:59.542Z,8.23
2023-05-17T08:44:28.078Z,8.30
2023-05-17T08:46:55.296Z,8.09
2023-05-17T08:49:22.524Z,7.96
2023-05-17T08:51:53.676Z,7.74
2023-05-17T08:54:20.324Z,8.10
2023-05-17T08:56:47.281Z,8.19
2023-05-17T08:59:13.922Z,7.50
2023-05-17T09:01:41.412Z,8.21
2023-05-17T09:04:09.889Z,6.50
2023-05-17T09:06:37.251Z,8.06
2023-05-17T09:09:04.741Z,8.01
2023-05-17T09:11:33.198Z,7.10
2023-05-17T09:14:05.284Z,7.95
2023-05-17T09:16:33.910Z,8.02
2023-05-17T09:19:01.381Z,8.02
2023-05-17T09:21:28.501Z,7.33
2023-05-17T09:24:05.306Z,7.44
2023-05-17T09:26:46.122Z,7.90
2023-05-17T09:29:16.326Z,7.51
2023-05-17T09:31:43.327Z,7.89
2023-05-17T09:34:10.327Z,7.91
2023-05-17T09:36:37.728Z,7.20
2023-05-17T09:39:06.117Z,7.39
2023-05-17T09:41:33.815Z,7.45
2023-05-17T09:44:01.463Z,6.58
2023-05-17T09:46:28.992Z,6.38
2023-05-17T09:48:56.487Z,7.48
2023-05-17T09:51:34.095Z,6.86
2023-05-17T09:54:00.921Z,7.22
2023-05-17T09:56:31.402Z,7.31
2023-05-17T09:59:01.372Z,7.05
2023-05-17T10:01:29.271Z,7.74
2023-05-17T10:03:56.625Z,7.44
2023-05-17T10:06:38.518Z,7.26
2023-05-17T10:09:10.952Z,7.47
2023-05-17T10:11:37.881Z,7.61
2023-05-17T10:14:32.148Z,7.88
2023-05-17T10:16:59.006Z,7.59
2023-05-17T10:19:25.875Z,7.87
2023-05-17T10:21:53.210Z,7.00
2023-05-17T10:24:20.801Z,7.25
2023-05-17T10:26:52.049Z,6.39
2023-05-17T10:29:21.147Z,7.30
2023-05-17T10:31:48.016Z,6.41
2023-05-17T10:34:17.275Z,7.29
2023-05-17T10:36:44.137Z,7.69
2023-05-17T10:39:11.037Z,7.30
2023-05-17T10:41:39.980Z,7.39
2023-05-17T10:44:08.040Z,7.80
2023-05-17T10:46:34.790Z,7.15
2023-05-17T10:49:01.755Z,7.17
2023-05-17T10:51:36.773Z,7.77
2023-05-17T10:54:06.061Z,7.82
2023-05-17T10:56:32.966Z,7.50
2023-05-17T10:59:35.829Z,7.55
2023-05-17T11:02:06.437Z,7.38
2023-05-17T11:04:37.428Z,5.99
2023-05-17T11:07:22.383Z,7.59
2023-05-17T11:10:06.275Z,7.58
2023-05-17T11:12:43.181Z,7.13
2023-05-17T11:15:11.127Z,5.41
2023-05-17T11:17:58.280Z,7.64
2023-05-17T11:20:25.033Z,7.68
2023-05-17T11:23:00.919Z,6.99
2023-05-17T11:25:31.784Z,7.13
2023-05-17T11:27:58.632Z,7.25
2023-05-17T11:30:30.669Z,7.36
2023-05-17T11:33:02.853Z,6.87
2023-05-17T11:35:37.285Z,7.59
2023-05-17T11:38:16.590Z,7.08
2023-05-17T11:40:43.690Z,7.34
2023-05-17T11:43:17.872Z,6.94
2023-05-17T11:45:58.137Z,7.17
2023-05-17T11:48:26.157Z,6.76
2023-05-17T11:50:54.610Z,6.92
2023-05-17T11:53:21.655Z,7.34
2023-05-17T11:55:52.296Z,7.05
2023-05-17T11:58:24.507Z,5.75
2023-05-17T12:00:55.317Z,7.18
2023-05-17T12:03:25.975Z,7.19
2023-05-17T12:06:02.328Z,7.70
2023-05-17T12:08:28.993Z,7.34
2023-05-17T12:10:57.173Z,6.54
2023-05-17T12:13:23.864Z,6.89
2023-05-17T12:16:06.105Z,7.25
2023-05-17T12:18:37.055Z,7.61
2023-05-17T12:21:04.061Z,7.50
2023-05-17T12:23:38.151Z,7.16
2023-05-17T12:26:12.373Z,6.67
2023-05-17T12:28:40.019Z,7.40
2023-05-17T12:31:15.332Z,7.28
2023-05-17T12:33:43.035Z,7.39
2023-05-17T12:36:10.899Z,6.65
2023-05-17T12:38:38.437Z,6.93
2023-05-17T12:41:06.045Z,7.03
2023-05-17T12:43:37.085Z,7.15
2023-05-17T12:46:07.903Z,7.46
2023-05-17T12:48:38.634Z,7.08
2023-05-17T12:51:16.369Z,7.22
2023-05-17T12:54:01.191Z,7.27
2023-05-17T12:56:28.753Z,6.53
2023-05-17T12:59:13.982Z,7.15
2023-05-17T13:01:44.016Z,7.07
2023-05-17T13:04:10.967Z,6.92
2023-05-17T13:06:56.943Z,7.25
2023-05-17T13:09:24.914Z,7.19
2023-05-17T13:12:05.677Z,7.36
2023-05-17T13:14:41.964Z,7.11
2023-05-17T13:17:11.556Z,6.29
2023-05-17T13:19:38.769Z,7.37
2023-05-17T13:22:06.013Z,6.79
2023-05-17T13:24:36.649Z,7.62
2023-05-17T13:27:03.955Z,7.42
2023-05-17T13:29:39.008Z,7.53
2023-05-17T13:32:07.014Z,7.71
2023-05-17T13:34:33.669Z,7.19
2023-05-17T13:37:01.249Z,7.68
2023-05-17T13:39:27.955Z,7.30
2023-05-17T13:41:54.618Z,7.38
2023-05-17T13:44:21.269Z,7.40
2023-05-17T13:46:47.946Z,7.66
2023-05-17T13:49:14.805Z,5.83
2023-05-17T13:51:42.676Z,7.61
2023-05-17T13:54:10.546Z,7.09
2023-05-17T13:56:37.295Z,6.59
2023-05-17T13:59:04.021Z,7.58
2023-05-17T14:01:31.041Z,7.61
2023-05-17T14:03:57.825Z,7.74
2023-05-17T14:06:24.681Z,7.82
2023-05-17T14:08:53.301Z,7.56
2023-05-17T14:11:19.988Z,7.12
2023-05-17T14:13:46.877Z,7.73
2023-05-17T14:16:14.548Z,7.52
2023-05-17T14:18:41.519Z,7.42
2023-05-17T14:21:08.376Z,7.68
2023-05-17T14:23:35.305Z,7.48
2023-05-17T14:26:05.294Z,7.10
2023-05-17T14:28:31.963Z,7.58
2023-05-17T14:30:58.792Z,7.26
2023-05-17T14:33:26.991Z,7.67
2023-05-17T14:35:53.768Z,7.65
2023-05-17T14:38:23.228Z,8.14
2023-05-17T14:40:50.141Z,8.14
2023-05-17T14:43:17.020Z,7.98
2023-05-17T14:45:43.684Z,7.75
2023-05-17T14:48:10.522Z,7.70
2023-05-17T14:50:37.242Z,8.19
2023-05-17T14:53:03.948Z,7.84
2023-05-17T14:55:30.905Z,7.60
2023-05-17T14:57:58.075Z,7.23
2023-05-17T15:00:25.633Z,7.28
2023-05-17T15:02:52.382Z,6.01
2023-05-17T15:05:20.023Z,6.99
2023-05-17T15:07:47.603Z,7.57
2023-05-17T15:10:15.023Z,7.60
2023-05-17T15:12:41.648Z,7.55
2023-05-17T15:15:08.987Z,7.04
2023-05-17T15:17:35.666Z,7.08
2023-05-17T15:20:02.450Z,6.49
2023-05-17T15:22:29.474Z,7.12
2023-05-17T15:24:57.788Z,5.68
2023-05-17T15:27:24.492Z,7.82
2023-05-17T15:29:51.301Z,6.92
2023-05-17T15:32:18.048Z,7.58
2023-05-17T15:34:45.479Z,7.24
2023-05-17T15:37:12.229Z,7.14
2023-05-17T15:39:39.110Z,7.58
2023-05-17T15:42:05.994Z,6.86
2023-05-17T15:44:32.737Z,6.72
2023-05-17T15:47:01.497Z,7.56
2023-05-17T15:49:29.802Z,7.34
2023-05-17T15:51:56.751Z,7.52
2023-05-17T15:54:23.430Z,7.61
2023-05-17T15:56:50.099Z,7.16
2023-05-17T15:59:17.404Z,7.51
2023-05-17T16:01:46.337Z,7.40
2023-05-17T16:04:13.604Z,7.48
2023-05-17T16:06:40.697Z,7.65
2023-05-17T16:09:07.873Z,6.95
2023-05-17T16:11:35.880Z,6.80
2023-05-17T16:14:02.698Z,7.66
2023-05-17T16:16:29.649Z,7.38
2023-05-17T16:18:57.810Z,7.58
2023-05-17T16:21:24.625Z,7.44
2023-05-17T16:23:51.791Z,7.52
2023-05-17T16:26:18.895Z,7.69
2023-05-17T16:28:45.814Z,7.49
2023-05-17T16:31:12.619Z,7.22
2023-05-17T16:33:41.591Z,7.47
2023-05-17T16:36:12.445Z,7.67
2023-05-17T16:38:39.226Z,7.68
2023-05-17T16:41:06.117Z,7.41
2023-05-17T16:43:32.867Z,7.96
2023-05-17T16:45:59.611Z,7.97
2023-05-17T16:48:26.396Z,7.62
2023-05-17T16:50:53.290Z,7.85
2023-05-17T16:53:20.360Z,7.43
2023-05-17T16:55:47.043Z,7.45
2023-05-17T16:58:13.697Z,7.53
2023-05-17T17:00:40.652Z,7.47
2023-05-17T17:03:09.645Z,7.51
2023-05-17T17:05:36.781Z,6.38
2023-05-17T17:08:03.516Z,7.39
2023-05-17T17:10:30.378Z,7.32
2023-05-17T17:12:57.289Z,7.50
2023-05-17T17:15:24.132Z,7.30
2023-05-17T17:17:50.827Z,6.91
2023-05-17T17:20:18.124Z,5.92
2023-05-17T17:22:44.784Z,7.59
2023-05-17T17:25:11.472Z,7.29
2023-05-17T17:27:38.190Z,7.27
2023-05-17T17:30:05.549Z,7.36
2023-05-17T17:32:32.277Z,7.48
2023-05-17T17:34:59.087Z,5.85
2023-05-17T17:37:26.189Z,7.07
2023-05-17T17:39:52.899Z,7.49
2023-05-17T17:42:19.625Z,7.38
2023-05-17T17:44:46.325Z,5.84
2023-05-17T17:47:13.122Z,7.98
2023-05-17T17:49:39.985Z,7.38
2023-05-17T17:52:06.765Z,7.32
2023-05-17T17:54:33.497Z,7.99
2023-05-17T17:57:00.183Z,7.85
2023-05-17T17:59:26.926Z,7.86
2023-05-17T18:01:53.910Z,6.62
2023-05-17T18:04:20.717Z,7.67
2023-05-17T18:06:47.585Z,8.09
2023-05-17T18:09:14.300Z,7.68
2023-05-17T18:11:41.110Z,6.97
2023-05-17T18:14:08.226Z,7.46
2023-05-17T18:16:35.255Z,7.89
2023-05-17T18:19:14.438Z,7.67
2023-05-17T18:21:41.820Z,7.73
2023-05-17T18:24:08.866Z,7.80
2023-05-17T18:26:35.526Z,6.73
2023-05-17T18:29:02.169Z,7.75
2023-05-17T18:31:28.866Z,7.84
2023-05-17T18:33:57.360Z,7.80
2023-05-17T18:36:24.158Z,8.09
2023-05-17T18:38:50.909Z,7.78
2023-05-17T18:41:17.676Z,7.84
2023-05-17T18:43:44.376Z,7.44
2023-05-17T18:46:11.057Z,8.05
2023-05-17T18:48:38.901Z,7.60
2023-05-17T18:51:06.811Z,8.28
2023-05-17T18:53:33.613Z,8.19
2023-05-17T18:56:02.601Z,8.10
2023-05-17T18:58:29.566Z,8.06
2023-05-17T19:00:56.358Z,8.32
2023-05-17T19:03:23.020Z,6.48
2023-05-17T19:05:49.717Z,8.06
2023-05-17T19:08:16.459Z,8.04
2023-05-17T19:10:43.112Z,7.45
2023-05-17T19:13:09.856Z,7.94
2023-05-17T19:15:36.613Z,7.87
2023-05-17T19:18:03.439Z,7.83
2023-05-17T19:20:30.617Z,8.33
2023-05-17T19:22:57.513Z,7.94
2023-05-17T19:25:24.188Z,8.13
2023-05-17T19:27:50.963Z,8.09
2023-05-17T19:30:17.673Z,7.84
2023-05-17T19:32:44.407Z,8.34
2023-05-17T19:35:11.343Z,8.35
2023-05-17T19:37:38.021Z,8.02
2023-05-17T19:40:07.987Z,7.84
2023-05-17T19:42:34.603Z,8.07
2023-05-17T19:45:01.967Z,8.00
2023-05-17T19:47:28.678Z,8.12
2023-05-17T19:49:55.916Z,8.15
2023-05-17T19:52:22.727Z,6.58
2023-05-17T19:54:49.407Z,6.86
2023-05-17T19:57:16.076Z,8.02
2023-05-17T19:59:42.851Z,7.93
2023-05-17T20:02:09.771Z,7.93
2023-05-17T20:04:36.599Z,7.79
2023-05-17T20:07:03.552Z,7.74
2023-05-17T20:09:32.052Z,7.95
2023-05-17T20:11:58.817Z,8.43
2023-05-17T20:14:27.095Z,7.83
2023-05-17T20:16:54.039Z,8.15
2023-05-17T20:19:20.946Z,7.89
2023-05-17T20:21:47.801Z,7.75
2023-05-17T20:24:14.447Z,7.78
2023-05-17T20:26:41.157Z,8.00
2023-05-17T20:29:08.150Z,6.90
2023-05-17T20:31:35.366Z,7.75
2023-05-17T20:34:02.418Z,6.98
2023-05-17T20:36:29.158Z,8.01
2023-05-17T20:38:56.034Z,7.87
2023-05-17T20:41:22.730Z,7.43
2023-05-17T20:43:52.745Z,8.08
2023-05-17T20:46:19.624Z,7.94
2023-05-17T20:48:48.169Z,7.97
2023-05-17T20:51:15.577Z,7.77
2023-05-17T20:53:42.514Z,7.98
2023-05-17T20:56:09.277Z,7.96
2023-05-17T20:58:36.045Z,7.81
2023-05-17T21:01:02.898Z,7.96
2023-05-17T21:03:33.280Z,7.45
2023-05-17T21:06:05.396Z,7.00
2023-05-17T21:08:32.926Z,7.46
2023-05-17T21:10:59.797Z,7.29
2023-05-17T21:13:26.630Z,7.97
2023-05-17T21:15:56.409Z,7.61
2023-05-17T21:18:23.965Z,6.74
2023-05-17T21:20:51.094Z,8.16
2023-05-17T21:23:18.114Z,7.71
2023-05-17T21:25:44.777Z,7.46
2023-05-17T21:28:11.553Z,7.90
2023-05-17T21:30:38.510Z,7.99
2023-05-17T21:33:05.622Z,7.56
2023-05-17T21:35:32.550Z,7.96
2023-05-17T21:37:59.217Z,7.36
2023-05-17T21:40:25.981Z,7.21
2023-05-17T21:42:52.680Z,7.63
2023-05-17T21:45:19.467Z,7.01
2023-05-17T21:47:46.141Z,7.56
2023-05-17T21:50:12.932Z,8.03
2023-05-17T21:52:39.599Z,6.60
2023-05-17T21:55:07.137Z,8.04
2023-05-17T21:57:36.462Z,7.89
2023-05-17T22:00:04.936Z,7.75
2023-05-17T22:02:34.603Z,7.62
2023-05-17T22:05:01.676Z,7.45
2023-05-17T22:07:28.365Z,7.19
2023-05-17T22:09:55.255Z,7.48
2023-05-17T22:12:25.789Z,6.66
2023-05-17T22:14:56.827Z,7.40
2023-05-17T22:17:32.362Z,5.95
2023-05-17T22:20:09.781Z,6.27
2023-05-17T22:22:37.583Z,8.01
2023-05-17T22:25:04.899Z,7.43
2023-05-17T22:27:31.524Z,7.87
2023-05-17T22:29:58.274Z,7.71
2023-05-17T22:32:25.007Z,7.58
2023-05-17T22:34:52.890Z,7.72
2023-05-17T22:37:22.860Z,7.22
2023-05-17T22:39:49.613Z,7.39
2023-05-17T22:42:16.347Z,7.77
2023-05-17T22:44:43.027Z,7.47
2023-05-17T22:47:14.900Z,7.18
2023-05-17T22:49:42.006Z,7.96
2023-05-17T22:52:09.157Z,6.25
2023-05-17T22:54:36.730Z,7.95
2023-05-17T22:57:03.684Z,7.66
2023-05-17T22:59:30.591Z,7.39
2023-05-17T23:01:57.374Z,7.40
2023-05-17T23:04:26.943Z,7.42
2023-05-17T23:06:54.158Z,7.79
2023-05-17T23:09:21.966Z,7.68
2023-05-17T23:11:50.159Z,7.21
2023-05-17T23:14:17.765Z,7.65
2023-05-17T23:16:44.569Z,7.48
2023-05-17T23:19:11.266Z,7.60
2023-05-17T23:21:39.658Z,7.27
2023-05-17T23:24:08.141Z,7.56
2023-05-17T23:26:35.162Z,7.83
2023-05-17T23:29:03.578Z,7.44
2023-05-17T23:31:30.421Z,7.67
2023-05-17T23:33:57.139Z,8.13
2023-05-17T23:36:23.855Z,7.50
2023-05-17T23:38:50.565Z,7.71
2023-05-17T23:41:18.442Z,7.74
2023-05-17T23:43:45.272Z,7.40
2023-05-17T23:46:13.872Z,7.90
2023-05-17T23:48:40.788Z,7.94
2023-05-17T23:51:07.923Z,7.96
2023-05-17T23:53:34.589Z,7.21
2023-05-17T23:56:01.473Z,7.75
2023-05-17T23:58:28.130Z,7.87
